Time;durP1;ratioP1;P1;durP2;ratioP2;P2;SDS_P1;SDS_P2;PMS_P1;PMS_P2;Temp;Humidity;BMP_temperature;BMP_pressure;BME280_temperature;BME280_humidity;BME280_pressure;Samples;Min_cycle;Max_cycle;Signal;HPM_P1;HPM_P2
2022/01/08 00:00:54;;;;;;;;;;;;;;;4.47;68.75;100966.94;5080339;28;20295;-69
2022/01/08 00:03:19;;;;;;;;;;;;;;;4.45;68.80;100962.72;5092156;28;19959;-69
2022/01/08 00:05:44;;;;;;;;;;;;;;;4.43;68.90;100969.25;5087780;28;20450;-69
2022/01/08 00:08:10;;;;;;;;;;;;;;;4.41;68.76;100967.81;5090087;28;19923;-69
2022/01/08 00:10:35;;;;;;;;;;;;;;;4.39;69.00;100958.91;5076134;28;19925;-69
2022/01/08 00:13:04;;;;;;;;;;;;;;;4.38;69.10;100962.72;5087261;28;20339;-69
2022/01/08 00:15:29;;;;;;;;;;;;;;;4.36;68.61;100971.19;5090113;28;19962;-69
2022/01/08 00:17:54;;;;;;;;;;;;;;;4.34;68.66;100978.78;5094028;28;19920;-69
2022/01/08 00:20:19;;;;;;;;;;;;;;;4.34;68.83;100973.28;5087658;28;19924;-69
2022/01/08 00:22:45;;;;;;;;;;;;;;;4.33;68.60;100981.75;5088720;28;19977;-69
2022/01/08 00:25:10;;;;;;;;;;;;;;;4.33;68.67;100981.75;5090473;28;19928;-69
2022/01/08 00:27:35;;;;;;;;;;;;;;;4.31;69.08;100983.84;5085467;28;20302;-69
2022/01/08 00:30:00;;;;;;;;;;;;;;;4.32;68.83;100982.78;5087130;28;19920;-69
2022/01/08 00:32:26;;;;;;;;;;;;;;;4.29;69.07;100981.31;5086114;28;19924;-69
2022/01/08 00:34:51;;;;;;;;;;;;;;;4.29;68.58;100980.47;5090947;28;20394;-69
2022/01/08 00:37:16;;;;;;;;;;;;;;;4.26;68.98;100984.47;5089433;28;19932;-69
2022/01/08 00:39:41;;;;;;;;;;;;;;;4.26;68.83;100980.88;5090381;28;19965;-69
2022/01/08 00:42:07;;;;;;;;;;;;;;;4.24;68.88;100986.56;5083635;28;19968;-69
2022/01/08 00:44:32;;;;;;;;;;;;;;;4.24;68.58;100993.97;5090888;28;19920;-69
2022/01/08 00:46:57;;;;;;;;;;;;;;;4.25;68.88;100998.44;5090734;28;20022;-69
2022/01/08 00:49:24;;;;;;;;;;;;;;;4.25;68.75;101006.66;5079985;28;19920;-69
2022/01/08 00:51:50;;;;;;;;;;;;;;;4.24;68.69;101007.69;5093411;28;19920;-69
2022/01/08 00:54:15;;;;;;;;;;;;;;;4.23;68.84;101019.75;5091987;28;19926;-69
2022/01/08 00:56:40;;;;;;;;;;;;;;;4.24;68.78;101015.94;5090975;28;19928;-70
2022/01/08 00:59:05;;;;;;;;;;;;;;;4.22;68.79;101013.41;5085208;28;19970;-69
2022/01/08 01:01:30;;;;;;;;;;;;;;;4.21;68.54;101011.72;5092786;28;19920;-69
2022/01/08 01:03:56;;;;;;;;;;;;;;;4.20;68.97;101021.00;5086856;28;20089;-69
2022/01/08 01:06:21;;;;;;;;;;;;;;;4.21;68.88;101010.88;5096188;28;20290;-69
2022/01/08 01:08:47;;;;;;;;;;;;;;;4.21;68.84;101008.13;5104932;28;19970;-69
2022/01/08 01:11:12;;;;;;;;;;;;;;;4.21;68.46;101005.41;5098207;28;19920;-69
2022/01/08 01:13:37;;;;;;;;;;;;;;;4.17;68.60;101000.31;5092102;28;19951;-69
2022/01/08 01:16:03;;;;;;;;;;;;;;;4.14;68.71;101003.47;5093514;28;20317;-69
2022/01/08 01:18:28;;;;;;;;;;;;;;;4.12;68.76;101007.47;5095015;28;19927;-69
2022/01/08 01:20:53;;;;;;;;;;;;;;;4.11;68.55;101009.38;5093710;28;20015;-69
2022/01/08 01:23:26;;;;;;;;;;;;;;;4.09;68.96;101002.41;5098548;28;19986;-69
2022/01/08 01:25:56;;;;;;;;;;;;;;;4.07;68.99;100999.84;5092911;28;20006;-69
2022/01/08 01:41:38;;;;;;;;;;;;;;;3.95;69.00;101007.00;5082554;28;19926;-69
2022/01/08 01:49:19;;;;;;;;;;;;;;;3.93;68.49;101025.59;5084010;28;20915;-69
2022/01/08 01:51:44;;;;;;;;;;;;;;;3.92;68.79;101021.13;5088732;28;19924;-69
2022/01/08 01:54:10;;;;;;;;;;;;;;;3.92;68.89;101013.72;5099384;28;19977;-68
2022/01/08 01:56:36;;;;;;;;;;;;;;;3.92;68.99;101015.63;5094204;28;19924;-69
2022/01/08 01:59:02;;;;;;;;;;;;;;;3.92;69.15;101008.25;5087990;28;19932;-69
2022/01/08 02:01:27;;;;;;;;;;;;;;;3.92;68.39;101011.00;5094293;28;19978;-69
2022/01/08 02:03:53;;;;;;;;;;;;;;;3.91;68.68;101011.22;5100893;28;19920;-69
2022/01/08 02:06:19;;;;;;;;;;;;;;;3.91;68.58;101006.56;5094771;28;19920;-69
2022/01/08 02:08:44;;;;;;;;;;;;;;;3.88;68.76;101006.97;5092546;28;19923;-69
2022/01/08 02:11:09;;;;;;;;;;;;;;;3.87;68.58;101010.75;5089156;28;19962;-69
2022/01/08 02:13:35;;;;;;;;;;;;;;;3.88;68.52;101012.44;5091015;28;19928;-69
2022/01/08 02:16:01;;;;;;;;;;;;;;;3.89;68.73;101016.91;5093735;28;19966;-69
2022/01/08 02:18:27;;;;;;;;;;;;;;;3.92;68.65;101012.88;5081723;28;19924;-68
2022/01/08 02:20:53;;;;;;;;;;;;;;;3.92;68.63;101010.16;5099617;28;19976;-69
2022/01/08 02:23:18;;;;;;;;;;;;;;;3.91;68.51;101022.19;5086430;28;19927;-69
2022/01/08 02:25:43;;;;;;;;;;;;;;;3.91;68.47;101023.03;5099796;27;19967;-69
2022/01/08 02:28:08;;;;;;;;;;;;;;;3.89;68.84;101019.66;5095503;28;19946;-69
2022/01/08 02:30:34;;;;;;;;;;;;;;;3.90;68.62;101020.50;5095995;28;19924;-69
2022/01/08 02:32:59;;;;;;;;;;;;;;;3.89;68.65;101032.50;5083728;28;20264;-69
2022/01/08 02:35:25;;;;;;;;;;;;;;;3.87;68.52;101032.72;5096975;28;19920;-69
2022/01/08 02:37:50;;;;;;;;;;;;;;;3.88;68.71;101030.84;5093810;28;20295;-69
2022/01/08 02:40:18;;;;;;;;;;;;;;;3.87;68.51;101026.41;5084237;28;20008;-69
2022/01/08 02:42:51;;;;;;;;;;;;;;;3.86;68.86;101032.94;5088433;28;19924;-69
2022/01/08 02:45:17;;;;;;;;;;;;;;;3.84;68.63;101033.13;5093525;28;20345;-69
2022/01/08 02:47:42;;;;;;;;;;;;;;;3.84;69.01;101032.28;5098399;28;20366;-69
2022/01/08 02:50:08;;;;;;;;;;;;;;;3.85;68.70;101033.97;5084700;28;19920;-69
2022/01/08 02:52:34;;;;;;;;;;;;;;;3.83;68.59;101036.94;5091493;28;19964;-69
2022/01/08 02:54:59;;;;;;;;;;;;;;;3.85;69.07;101036.72;5089607;28;20383;-68
2022/01/08 02:57:24;;;;;;;;;;;;;;;3.85;69.01;101028.47;5098856;28;19930;-69
2022/01/08 02:59:49;;;;;;;;;;;;;;;3.83;68.59;101031.44;5088335;28;20006;-68
2022/01/08 03:02:14;;;;;;;;;;;;;;;3.84;68.62;101032.28;5096743;28;19990;-69
2022/01/08 03:04:40;;;;;;;;;;;;;;;3.83;68.65;101031.44;5087715;28;19928;-69
2022/01/08 03:07:05;;;;;;;;;;;;;;;3.85;69.08;101037.59;5093130;28;19920;-68
2022/01/08 03:09:33;;;;;;;;;;;;;;;3.85;68.95;101034.84;5094388;28;19924;-68
2022/01/08 03:11:58;;;;;;;;;;;;;;;3.86;68.72;101032.94;5083786;28;19951;-68
2022/01/08 03:14:23;;;;;;;;;;;;;;;3.84;68.93;101038.63;5091710;28;20375;-68
2022/01/08 03:16:48;;;;;;;;;;;;;;;3.85;69.09;101044.97;5089456;28;20018;-69
2022/01/08 03:19:15;;;;;;;;;;;;;;;3.81;69.03;101033.56;5087155;28;19927;-68
2022/01/08 03:21:46;;;;;;;;;;;;;;;3.81;69.06;101030.81;5089415;28;19927;-68
2022/01/08 03:24:16;;;;;;;;;;;;;;;3.81;68.77;101032.69;5085803;28;20015;-68
2022/01/08 03:26:41;;;;;;;;;;;;;;;3.81;68.42;101033.56;5083813;28;19920;-68
2022/01/08 03:29:07;;;;;;;;;;;;;;;3.81;68.61;101035.44;5090331;28;19927;-68
2022/01/08 03:31:33;;;;;;;;;;;;;;;3.79;69.13;101040.31;5087137;28;19920;-69
2022/01/08 03:33:58;;;;;;;;;;;;;;;3.78;68.69;101030.38;5098376;28;19927;-68
2022/01/08 03:36:23;;;;;;;;;;;;;;;3.77;68.64;101032.25;5087292;28;19989;-68
2022/01/08 03:38:49;;;;;;;;;;;;;;;3.79;68.86;101037.56;5084567;28;20833;-68
2022/01/08 03:41:15;;;;;;;;;;;;;;;3.81;69.14;101038.19;5094748;28;20001;-68
2022/01/08 03:43:40;;;;;;;;;;;;;;;3.79;68.89;101035.66;5090630;28;19958;-68
2022/01/08 03:46:05;;;;;;;;;;;;;;;3.80;68.83;101031.00;5086237;28;19961;-68
2022/01/08 03:48:43;;;;;;;;;;;;;;;3.82;68.44;101038.00;5088329;28;20365;-68
2022/01/08 03:51:09;;;;;;;;;;;;;;;3.78;68.51;101031.22;5086165;28;19919;-69
2022/01/08 03:53:34;;;;;;;;;;;;;;;3.77;69.12;101037.75;5083135;28;19970;-68
2022/01/08 03:55:59;;;;;;;;;;;;;;;3.77;69.07;101026.75;5089089;28;19927;-68
2022/01/08 03:58:25;;;;;;;;;;;;;;;3.75;68.87;101028.03;5079455;28;19966;-69
2022/01/08 04:00:51;;;;;;;;;;;;;;;3.77;69.06;101036.91;5082657;28;20264;-68
2022/01/08 04:03:19;;;;;;;;;;;;;;;3.78;68.89;101039.47;5092204;28;19967;-69
2022/01/08 04:05:47;;;;;;;;;;;;;;;3.77;68.63;101042.38;5095683;28;19924;-68
2022/01/08 04:08:13;;;;;;;;;;;;;;;3.74;68.74;101046.41;5091098;28;19924;-68
2022/01/08 04:10:38;;;;;;;;;;;;;;;3.72;69.07;101056.72;5094942;28;20325;-68
2022/01/08 04:13:10;;;;;;;;;;;;;;;3.71;69.00;101055.03;5097614;28;19970;-68
2022/01/08 04:15:38;;;;;;;;;;;;;;;3.69;69.15;101055.25;5094002;28;19923;-69
2022/01/08 04:18:04;;;;;;;;;;;;;;;3.69;68.57;101052.50;5083125;28;20442;-68
2022/01/08 04:20:29;;;;;;;;;;;;;;;3.69;69.01;101058.00;5093392;28;19915;-69
2022/01/08 04:22:55;;;;;;;;;;;;;;;3.69;69.08;101047.03;5089717;28;19944;-68
2022/01/08 04:25:21;;;;;;;;;;;;;;;3.68;69.10;101059.03;5088135;28;19965;-68
2022/01/08 04:27:46;;;;;;;;;;;;;;;3.68;69.09;101059.03;5080123;28;19944;-68
2022/01/08 04:30:12;;;;;;;;;;;;;;;3.68;69.03;101063.69;5093534;28;20014;-68
2022/01/08 04:32:37;;;;;;;;;;;;;;;3.67;68.97;101068.31;5096669;28;19930;-68
2022/01/08 04:35:02;;;;;;;;;;;;;;;3.66;68.49;101072.13;5073909;28;19943;-68
2022/01/08 04:37:28;;;;;;;;;;;;;;;3.67;69.00;101081.22;5088517;28;19991;-68
2022/01/08 04:39:53;;;;;;;;;;;;;;;3.66;68.59;101080.38;5094651;28;19919;-68
2022/01/08 04:42:18;;;;;;;;;;;;;;;3.68;68.76;101083.75;5095546;28;19927;-68
2022/01/08 04:44:43;;;;;;;;;;;;;;;3.69;69.03;101073.59;5093822;28;20019;-68
2022/01/08 04:47:08;;;;;;;;;;;;;;;3.68;68.71;101072.75;5096652;28;20291;-68
2022/01/08 04:49:34;;;;;;;;;;;;;;;3.67;68.87;101067.47;5092670;28;20008;-68
2022/01/08 04:51:59;;;;;;;;;;;;;;;3.66;69.06;101074.88;5100449;28;20354;-69
2022/01/08 04:54:24;;;;;;;;;;;;;;;3.67;69.01;101079.31;5080565;28;19920;-69
2022/01/08 04:56:50;;;;;;;;;;;;;;;3.69;68.63;101076.34;5091083;28;19973;-69
2022/01/08 04:59:15;;;;;;;;;;;;;;;3.71;68.76;101087.16;5085525;28;19998;-69
2022/01/08 05:01:41;;;;;;;;;;;;;;;3.71;68.76;101095.38;5089781;28;20299;-68
2022/01/08 05:04:07;;;;;;;;;;;;;;;3.67;69.17;101081.22;5089245;28;19928;-68
2022/01/08 05:06:32;;;;;;;;;;;;;;;3.64;68.92;101079.72;5085391;28;20260;-69
2022/01/08 05:08:57;;;;;;;;;;;;;;;3.61;69.20;101093.81;5082416;28;19942;-69
2022/01/08 05:11:22;;;;;;;;;;;;;;;3.59;68.90;101098.69;5089097;28;19978;-68
2022/01/08 05:13:49;;;;;;;;;;;;;;;3.58;69.18;101102.50;5085538;28;19921;-69
2022/01/08 05:16:15;;;;;;;;;;;;;;;3.57;69.03;101103.50;5092121;28;20367;-68
2022/01/08 05:18:40;;;;;;;;;;;;;;;3.57;68.91;101098.03;5091305;28;19931;-68
2022/01/08 05:21:12;;;;;;;;;;;;;;;3.57;69.38;101109.00;5085667;28;19962;-68
2022/01/08 05:23:38;;;;;;;;;;;;;;;3.57;68.86;101099.94;5091161;28;20397;-68
2022/01/08 05:26:03;;;;;;;;;;;;;;;3.57;68.98;101092.53;5088440;28;19920;-68
2022/01/08 05:28:28;;;;;;;;;;;;;;;3.56;69.32;101088.09;5093840;28;19919;-68
2022/01/08 05:30:53;;;;;;;;;;;;;;;3.57;68.95;101092.53;5088106;28;19992;-69
2022/01/08 05:33:18;;;;;;;;;;;;;;;3.58;68.88;101097.00;5086971;28;20279;-68
2022/01/08 05:35:45;;;;;;;;;;;;;;;3.61;69.08;101092.97;5081689;28;19931;-68
2022/01/08 05:38:10;;;;;;;;;;;;;;;3.62;69.22;101094.69;5093714;28;19928;-68
2022/01/08 05:40:35;;;;;;;;;;;;;;;3.64;69.19;101087.09;5075702;28;20367;-68
2022/01/08 05:43:00;;;;;;;;;;;;;;;3.63;68.83;101083.50;5095865;28;19924;-68
2022/01/08 05:45:26;;;;;;;;;;;;;;;3.63;68.90;101086.25;5085696;28;19923;-68
2022/01/08 05:47:51;;;;;;;;;;;;;;;3.62;69.00;101081.81;5098336;28;19924;-68
2022/01/08 05:50:16;;;;;;;;;;;;;;;3.60;69.22;101092.13;5090596;28;20286;-68
2022/01/08 05:52:41;;;;;;;;;;;;;;;3.59;68.77;101098.69;5095215;28;19946;-68
2022/01/08 05:55:07;;;;;;;;;;;;;;;3.57;69.38;101098.03;5094267;28;19969;-68
2022/01/08 05:57:32;;;;;;;;;;;;;;;3.55;69.43;101100.13;5094155;28;19924;-68
2022/01/08 05:59:57;;;;;;;;;;;;;;;3.55;69.36;101107.53;5095116;28;19969;-68
2022/01/08 06:02:22;;;;;;;;;;;;;;;3.54;68.83;101105.84;5092917;28;19920;-68
2022/01/08 06:04:47;;;;;;;;;;;;;;;3.54;69.25;101114.91;5089476;28;19923;-68
2022/01/08 06:07:13;;;;;;;;;;;;;;;3.54;69.03;101119.56;5096780;28;20022;-68
2022/01/08 06:09:38;;;;;;;;;;;;;;;3.54;69.33;101125.91;5094513;28;19923;-68
2022/01/08 06:12:03;;;;;;;;;;;;;;;3.53;69.50;101124.19;5098447;28;20376;-68
2022/01/08 06:14:28;;;;;;;;;;;;;;;3.53;69.11;101124.19;5094125;28;19936;-68
2022/01/08 06:16:54;;;;;;;;;;;;;;;3.54;68.89;101125.91;5090771;28;19917;-68
2022/01/08 06:19:19;;;;;;;;;;;;;;;3.54;69.42;101123.16;5082497;28;20371;-68
2022/01/08 06:21:44;;;;;;;;;;;;;;;3.55;68.98;101126.75;5101947;28;20001;-68
2022/01/08 06:24:09;;;;;;;;;;;;;;;3.53;69.32;101129.66;5084984;28;19923;-68
2022/01/08 06:26:35;;;;;;;;;;;;;;;3.55;69.37;101124.00;5093801;28;19930;-68
2022/01/08 06:29:00;;;;;;;;;;;;;;;3.56;69.37;101122.94;5085994;28;19920;-68
2022/01/08 06:31:26;;;;;;;;;;;;;;;3.56;69.11;101121.03;5090828;28;19927;-69
2022/01/08 06:33:51;;;;;;;;;;;;;;;3.56;68.83;101126.53;5094044;28;19920;-68
2022/01/08 06:36:19;;;;;;;;;;;;;;;3.54;69.18;101123.16;5082210;28;19931;-68
2022/01/08 06:38:45;;;;;;;;;;;;;;;3.53;69.31;101124.19;5083658;28;20341;-68
2022/01/08 06:41:10;;;;;;;;;;;;;;;3.51;69.50;101108.97;5087790;28;19920;-68
2022/01/08 06:43:35;;;;;;;;;;;;;;;3.48;69.19;101101.97;5089235;28;20007;-68
2022/01/08 06:46:01;;;;;;;;;;;;;;;3.48;69.00;101104.72;5090230;28;19919;-68
2022/01/08 06:48:26;;;;;;;;;;;;;;;3.49;69.45;101100.94;5092725;28;20061;-68
2022/01/08 06:50:51;;;;;;;;;;;;;;;3.48;69.57;101098.41;5096357;28;20005;-68
2022/01/08 06:53:16;;;;;;;;;;;;;;;3.51;69.23;101098.84;5090608;28;19924;-68
2022/01/08 06:55:41;;;;;;;;;;;;;;;3.51;69.36;101092.50;5099180;28;19924;-68
2022/01/08 06:58:07;;;;;;;;;;;;;;;3.51;69.40;101095.25;5091072;28;19946;-68
2022/01/08 07:00:32;;;;;;;;;;;;;;;3.47;68.97;101100.28;5082271;28;19920;-68
2022/01/08 07:02:57;;;;;;;;;;;;;;;3.45;69.41;101105.13;5092929;28;19928;-69
2022/01/08 07:05:22;;;;;;;;;;;;;;;3.44;69.78;101097.94;5083206;28;20531;-68
2022/01/08 07:07:47;;;;;;;;;;;;;;;3.43;69.19;101101.75;5091560;28;19919;-68
2022/01/08 07:10:12;;;;;;;;;;;;;;;3.44;69.56;101101.53;5078325;28;19920;-68
2022/01/08 07:12:38;;;;;;;;;;;;;;;3.47;69.65;101103.03;5094857;28;19982;-68
2022/01/08 07:15:03;;;;;;;;;;;;;;;3.46;69.50;101104.09;5093490;28;19928;-68
2022/01/08 07:17:29;;;;;;;;;;;;;;;3.42;69.11;101089.94;5093704;28;19970;-68
2022/01/08 07:20:03;;;;;;;;;;;;;;;3.42;69.52;101095.41;5092480;28;19992;-68
2022/01/08 07:22:29;;;;;;;;;;;;;;;3.41;69.53;101096.44;5089107;28;19960;-68
2022/01/08 07:24:54;;;;;;;;;;;;;;;3.41;69.62;101104.66;5096543;28;19927;-68
2022/01/08 07:27:19;;;;;;;;;;;;;;;3.41;69.74;101109.31;5082553;28;20394;-68
2022/01/08 07:29:44;;;;;;;;;;;;;;;3.41;69.29;101093.69;5098255;28;19919;-68
2022/01/08 07:32:10;;;;;;;;;;;;;;;3.41;69.46;101096.44;5095004;28;19942;-66
2022/01/08 07:34:35;;;;;;;;;;;;;;;3.40;69.02;101094.75;5088543;28;19924;-66
2022/01/08 07:37:06;;;;;;;;;;;;;;;3.40;69.26;101092.00;5091055;28;19920;-67
2022/01/08 07:39:31;;;;;;;;;;;;;;;3.39;69.61;101098.56;5092105;28;19920;-67
2022/01/08 07:41:56;;;;;;;;;;;;;;;3.40;69.89;101104.88;5096116;28;20340;-68
2022/01/08 07:44:22;;;;;;;;;;;;;;;3.37;69.76;101100.63;5085237;28;20020;-68
2022/01/08 07:46:47;;;;;;;;;;;;;;;3.37;69.68;101100.63;5091080;28;19924;-68
2022/01/08 07:49:12;;;;;;;;;;;;;;;3.37;69.09;101094.31;5086007;28;19970;-68
2022/01/08 07:51:37;;;;;;;;;;;;;;;3.37;69.33;101097.03;5084688;28;20330;-66
2022/01/08 07:54:02;;;;;;;;;;;;;;;3.39;70.10;101094.97;5083722;28;19924;-67
2022/01/08 07:56:28;;;;;;;;;;;;;;;3.38;69.49;101091.38;5089257;28;19920;-70
2022/01/08 07:58:53;;;;;;;;;;;;;;;3.32;69.92;101094.91;5086169;28;19964;-68
2022/01/08 08:01:18;;;;;;;;;;;;;;;3.33;70.25;101084.78;5089256;28;19978;-68
2022/01/08 08:03:44;;;;;;;;;;;;;;;3.32;69.52;101080.34;5092198;28;20378;-68
2022/01/08 08:06:10;;;;;;;;;;;;;;;3.35;69.82;101077.22;5098381;28;19920;-68
2022/01/08 08:08:35;;;;;;;;;;;;;;;3.41;69.45;101076.38;5083194;28;19943;-67
2022/01/08 08:11:00;;;;;;;;;;;;;;;3.41;70.25;101077.22;5084516;28;19977;-69
2022/01/08 08:13:25;;;;;;;;;;;;;;;3.41;70.00;101077.22;5091449;28;20303;-70
2022/01/08 08:15:50;;;;;;;;;;;;;;;3.39;70.36;101079.34;5088088;28;20019;-68
2022/01/08 08:18:15;;;;;;;;;;;;;;;3.41;69.66;101071.75;5084562;28;19976;-69
2022/01/08 08:20:41;;;;;;;;;;;;;;;3.43;69.71;101074.31;5090470;28;19920;-67
2022/01/08 08:23:06;;;;;;;;;;;;;;;3.48;69.99;101062.72;5076089;28;19927;-69
2022/01/08 08:25:31;;;;;;;;;;;;;;;3.50;69.73;101071.59;5085165;28;20007;-69
2022/01/08 08:27:56;;;;;;;;;;;;;;;3.49;69.86;101058.91;5088834;28;20443;-69
2022/01/08 08:30:22;;;;;;;;;;;;;;;3.48;69.48;101063.56;5090611;28;19956;-67
2022/01/08 08:32:47;;;;;;;;;;;;;;;3.48;70.35;101068.22;5083288;28;20461;-68
2022/01/08 08:35:13;;;;;;;;;;;;;;;3.43;69.69;101055.94;5096110;28;19920;-70
2022/01/08 08:37:38;;;;;;;;;;;;;;;3.44;70.21;101060.38;5085838;28;19961;-69
2022/01/08 08:40:04;;;;;;;;;;;;;;;3.47;70.06;101059.13;5092228;28;19951;-72
2022/01/08 08:42:29;;;;;;;;;;;;;;;3.49;69.95;101058.91;5086550;28;19965;-68
2022/01/08 08:44:54;;;;;;;;;;;;;;;3.47;70.16;101055.53;5087131;28;19920;-67
2022/01/08 08:47:19;;;;;;;;;;;;;;;3.49;69.73;101054.28;5082328;28;19920;-68
2022/01/08 08:49:44;;;;;;;;;;;;;;;3.50;69.88;101063.34;5093929;28;19946;-68
2022/01/08 08:52:10;;;;;;;;;;;;;;;3.47;70.33;101056.38;5088659;28;20348;-70
2022/01/08 08:54:35;;;;;;;;;;;;;;;3.45;70.27;101050.25;5087452;28;20363;-67
2022/01/08 08:57:00;;;;;;;;;;;;;;;3.48;70.17;101054.50;5084902;28;19928;-67
2022/01/08 08:59:25;;;;;;;;;;;;;;;3.44;70.47;101045.81;5089929;28;19989;-68
2022/01/08 09:01:50;;;;;;;;;;;;;;;3.45;70.09;101050.25;5093515;28;20363;-67
2022/01/08 09:04:16;;;;;;;;;;;;;;;3.48;69.93;101049.84;5090721;28;20023;-69
2022/01/08 09:06:41;;;;;;;;;;;;;;;3.48;70.27;101049.00;5089619;28;20019;-69
2022/01/08 09:09:06;;;;;;;;;;;;;;;3.53;70.29;101060.22;5096270;28;20061;-68
2022/01/08 09:11:32;;;;;;;;;;;;;;;3.57;70.06;101045.88;5090996;28;20323;-68
2022/01/08 09:13:57;;;;;;;;;;;;;;;3.59;70.32;101056.66;5086753;28;20286;-67
2022/01/08 09:16:22;;;;;;;;;;;;;;;3.61;70.07;101052.66;5084824;28;20510;-69
2022/01/08 09:18:48;;;;;;;;;;;;;;;3.61;70.24;101052.66;5079298;28;19920;-68
2022/01/08 09:21:13;;;;;;;;;;;;;;;3.59;70.29;101045.69;5082985;28;19920;-69
2022/01/08 09:23:39;;;;;;;;;;;;;;;3.59;70.38;101052.03;5088754;28;19920;-70
2022/01/08 09:26:04;;;;;;;;;;;;;;;3.59;70.56;101037.47;5097076;28;19920;-67
2022/01/08 09:28:30;;;;;;;;;;;;;;;3.60;69.85;101030.91;5086459;28;20466;-68
2022/01/08 09:30:56;;;;;;;;;;;;;;;3.60;70.09;101030.91;5088917;28;19920;-67
2022/01/08 09:33:21;;;;;;;;;;;;;;;3.55;70.32;101027.94;5090321;28;19939;-70
2022/01/08 09:35:46;;;;;;;;;;;;;;;3.54;70.89;101016.13;5092604;28;19936;-69
2022/01/08 09:38:15;;;;;;;;;;;;;;;3.56;70.84;101010.41;5092265;28;20446;-70
2022/01/08 09:40:40;;;;;;;;;;;;;;;3.58;70.92;101008.31;5092134;28;19986;-70
2022/01/08 09:43:05;;;;;;;;;;;;;;;3.62;70.15;101004.13;5085405;28;19924;-69
2022/01/08 09:45:31;;;;;;;;;;;;;;;3.64;70.88;101002.00;5096100;28;19920;-69
2022/01/08 09:47:56;;;;;;;;;;;;;;;3.64;71.02;101002.84;5098991;28;20378;-69
2022/01/08 09:50:21;;;;;;;;;;;;;;;3.66;70.30;101000.75;5099420;28;19924;-69
2022/01/08 09:52:46;;;;;;;;;;;;;;;3.70;70.52;100987.47;5091427;28;20011;-69
2022/01/08 09:55:12;;;;;;;;;;;;;;;3.71;70.78;100982.81;5091892;28;19924;-69
2022/01/08 09:57:37;;;;;;;;;;;;;;;3.69;71.13;100986.63;5095430;28;19924;-70
2022/01/08 10:00:09;;;;;;;;;;;;;;;3.67;70.81;100974.16;5091168;28;19946;-70
2022/01/08 10:02:34;;;;;;;;;;;;;;;3.65;70.50;100973.50;5097016;28;19927;-69
2022/01/08 10:05:07;;;;;;;;;;;;;;;3.68;70.67;100965.69;5085756;28;19925;-69
2022/01/08 10:07:32;;;;;;;;;;;;;;;3.72;70.84;100959.81;5094654;28;19967;-69
2022/01/08 10:10:12;;;;;;;;;;;;;;;3.71;71.08;100947.97;5089194;28;19959;-67
2022/01/08 10:12:42;;;;;;;;;;;;;;;3.68;71.17;100934.66;5085140;28;20366;-69
2022/01/08 10:17:52;;;;;;;;;;;;;;;3.71;70.96;100923.28;5084707;28;20325;-70
2022/01/08 10:20:49;;;;;;;;;;;;;;;3.72;70.55;100905.75;5089008;28;19937;-68
2022/01/08 10:23:16;;;;;;;;;;;;;;;3.71;71.08;100904.06;5066053;28;20427;-67
2022/01/08 10:26:02;;;;;;;;;;;;;;;3.71;71.23;100886.75;5089842;28;20003;-70
2022/01/08 10:28:34;;;;;;;;;;;;;;;3.72;71.18;100886.53;5083740;28;20010;-71
2022/01/08 10:31:18;;;;;;;;;;;;;;;3.76;70.69;100889.72;5089207;28;19924;-68
2022/01/08 10:33:46;;;;;;;;;;;;;;;3.78;71.03;100891.22;5089594;28;19927;-67
2022/01/08 10:36:14;;;;;;;;;;;;;;;3.82;71.27;100888.91;5080169;28;19920;-68
2022/01/08 10:38:40;;;;;;;;;;;;;;;3.79;70.76;100884.66;5084577;28;19920;-68
2022/01/08 10:41:11;;;;;;;;;;;;;;;3.76;70.69;100875.97;5080956;28;19923;-68
2022/01/08 10:43:36;;;;;;;;;;;;;;;3.74;71.52;100867.13;5088838;28;19934;-68
2022/01/08 10:46:12;;;;;;;;;;;;;;;3.73;72.01;100855.28;5080696;28;19920;-69
2022/01/08 10:48:41;;;;;;;;;;;;;;;3.72;71.36;100850.84;5088479;28;19963;-66
2022/01/08 10:51:20;;;;;;;;;;;;;;;3.68;71.83;100844.91;5086224;28;19920;-70
2022/01/08 10:53:51;;;;;;;;;;;;;;;3.70;71.24;100839.25;5087173;28;19920;-68
2022/01/08 10:56:43;;;;;;;;;;;;;;;3.72;71.07;100823.41;5083399;28;19928;-69
2022/01/08 10:59:09;;;;;;;;;;;;;;;3.69;71.42;100824.69;5083386;28;19929;-66
2022/01/08 11:01:40;;;;;;;;;;;;;;;3.75;71.18;100819.41;5089969;28;19928;-64
2022/01/08 11:04:18;;;;;;;;;;;;;;;3.78;71.50;100805.25;5089443;28;19982;-66
2022/01/08 11:06:51;;;;;;;;;;;;;;;3.82;71.52;100810.13;5083660;28;19924;-66
2022/01/08 11:09:16;;;;;;;;;;;;;;;3.84;71.22;100799.75;5082771;28;19934;-73
2022/01/08 11:11:42;;;;;;;;;;;;;;;3.83;71.46;100799.97;5086215;28;19919;-72
2022/01/08 11:14:08;;;;;;;;;;;;;;;3.85;71.74;100784.13;5087376;28;20016;-72
2022/01/08 11:16:34;;;;;;;;;;;;;;;3.83;71.16;100776.09;5087753;28;19920;-67
2022/01/08 11:19:01;;;;;;;;;;;;;;;3.85;71.33;100765.78;5097676;28;19924;-68
2022/01/08 11:21:30;;;;;;;;;;;;;;;3.86;71.36;100761.13;5089638;28;19924;-70
2022/01/08 11:23:59;;;;;;;;;;;;;;;3.87;71.57;100749.91;5084636;28;19924;-69
2022/01/08 11:26:25;;;;;;;;;;;;;;;3.93;70.94;100743.59;5087207;28;19920;-70
2022/01/08 11:28:51;;;;;;;;;;;;;;;3.97;71.55;100743.13;5085873;28;20054;-70
2022/01/08 11:31:17;;;;;;;;;;;;;;;3.97;71.04;100730.28;5092014;28;20006;-70
2022/01/08 11:33:47;;;;;;;;;;;;;;;3.96;71.54;100723.06;5086017;28;19923;-70
2022/01/08 11:36:14;;;;;;;;;;;;;;;3.99;71.61;100733.63;5090701;28;19920;-71
2022/01/08 11:38:43;;;;;;;;;;;;;;;3.98;71.18;100720.13;5084730;28;19924;-67
2022/01/08 11:41:08;;;;;;;;;;;;;;;3.99;71.23;100721.81;5080960;28;20398;-67
2022/01/08 11:43:33;;;;;;;;;;;;;;;4.03;70.87;100712.09;5080726;28;19927;-67
2022/01/08 11:46:07;;;;;;;;;;;;;;;4.05;71.32;100705.34;5080394;28;19924;-66
2022/01/08 11:48:39;;;;;;;;;;;;;;;4.07;71.16;100692.22;5084071;28;19982;-68
2022/01/08 11:51:06;;;;;;;;;;;;;;;4.07;71.26;100674.91;5087143;28;19916;-69
2022/01/08 11:53:33;;;;;;;;;;;;;;;4.06;71.25;100679.56;5084841;28;19924;-69
2022/01/08 11:56:02;;;;;;;;;;;;;;;4.07;71.45;100663.91;5095238;28;19930;-72
2022/01/08 11:58:32;;;;;;;;;;;;;;;4.04;70.96;100654.19;5087764;28;20011;-70
2022/01/08 12:00:57;;;;;;;;;;;;;;;4.03;71.95;100666.25;5086837;28;20353;-65
2022/01/08 12:03:34;;;;;;;;;;;;;;;4.03;71.22;100652.50;5091007;28;19920;-70
2022/01/08 12:06:19;;;;;;;;;;;;;;;4.05;71.67;100653.16;5088368;28;19928;-69
2022/01/08 12:09:00;;;;;;;;;;;;;;;4.06;71.21;100643.84;5084427;28;19964;-70
2022/01/08 12:11:30;;;;;;;;;;;;;;;4.06;71.18;100635.59;5091388;28;19920;-65
2022/01/08 12:14:07;;;;;;;;;;;;;;;4.08;71.12;100633.47;5082833;28;19921;-70
2022/01/08 12:16:36;;;;;;;;;;;;;;;4.13;71.30;100625.44;5084487;28;19924;-74
2022/01/08 12:19:05;;;;;;;;;;;;;;;4.13;71.16;100619.13;5088201;28;20387;-69
2022/01/08 12:21:35;;;;;;;;;;;;;;;4.12;71.21;100601.75;5085399;28;20268;-69
2022/01/08 12:24:19;;;;;;;;;;;;;;;4.15;70.89;100604.09;5091719;28;19919;-66
2022/01/08 12:26:44;;;;;;;;;;;;;;;4.15;70.98;100573.88;5087769;28;19923;-69
2022/01/08 12:29:10;;;;;;;;;;;;;;;4.16;71.09;100558.22;5082048;28;19936;-71
2022/01/08 12:31:45;;;;;;;;;;;;;;;4.18;71.18;100554.22;5087044;28;19930;-71
2022/01/08 12:34:45;;;;;;;;;;;;;;;4.21;71.27;100536.47;5088889;28;19924;-71
2022/01/08 12:37:11;;;;;;;;;;;;;;;4.26;70.83;100530.31;5074046;28;19955;-74
2022/01/08 12:39:39;;;;;;;;;;;;;;;4.27;71.14;100512.75;5093294;28;20008;-73
2022/01/08 12:42:20;;;;;;;;;;;;;;;4.26;70.76;100503.66;5087594;28;20019;-72
2022/01/08 12:45:03;;;;;;;;;;;;;;;4.28;71.23;100497.94;5087980;28;19963;-73
2022/01/08 12:47:37;;;;;;;;;;;;;;;4.26;70.69;100489.09;5091800;28;19916;-74
2022/01/08 12:50:23;;;;;;;;;;;;;;;4.22;70.76;100479.59;5083499;28;19970;-69
2022/01/08 12:53:03;;;;;;;;;;;;;;;4.24;71.25;100472.81;5097769;28;19924;-69
2022/01/08 12:55:28;;;;;;;;;;;;;;;4.22;71.44;100480.44;5081400;28;19928;-71
2022/01/08 12:57:54;;;;;;;;;;;;;;;4.19;71.46;100447.91;5086621;28;20337;-69
2022/01/08 13:00:20;;;;;;;;;;;;;;;4.23;71.15;100443.66;5085581;28;19920;-72
2022/01/08 13:02:45;;;;;;;;;;;;;;;4.25;71.33;100435.22;5082344;28;20389;-69
2022/01/08 13:05:11;;;;;;;;;;;;;;;4.27;71.67;100424.84;5073921;28;20298;-68
2022/01/08 13:07:46;;;;;;;;;;;;;;;4.30;71.42;100405.16;5081234;28;19924;-68